XBB weather

Blubber Bay Seaplane Base
Blubber Bay, British Columbia, Canada

Public forecast

Using degrees Celsius for public forecast. Weather courtesy of forecast.io.

METAR (pilot weather report)

Report is more than 6 hours old.

Closest report is Powell River Airport, 5.3 nm (9.8 km) ENE. Retrieved 2019/09/18 02:00 UTC (6 hours ago):

CYPW 180200Z 08004KT 10SM BKN016 BKN059 13/12 A2970 RMK SC5SC2 LAST STFD OBS/NEXT 181300Z SLP060 DENSITY ALT 600FT

TAF (pilot weather forecast)

Closest forecast is Comox Airport, 11.5 nm (21.2 km) WSW. Retrieved 2019/09/18 06:25 UTC (2 hours ago):

TAF CYQQ 180539Z 1806/1906 14005KT 6SM -RA BR SCT005 OVC020 TEMPO 1806/1810 5SM -RA BR OVC005 FM181000 VRB03KT P6SM SCT005 OVC020 TEMPO 1810/1812 5SM -RA BR OVC005 FM181200 34005KT P6SM SCT005 OVC020 TEMPO 1812/1817 OVC005 FM181700 36008KT P6SM FEW005 SCT012 BKN025 TEMPO 1817/1819 SCT005 BKN012 FM181900 02008KT P6SM FEW015 SCT040 FM190000 VRB03KT P6SM SKC RMK NXT FCST BY 181200Z